Airfield :
LOGIN :

Register | Disclaimer

   EN    FR    IT 

 










Legend :    VFR   Marginal VFR   IFR   Intensive IFR   Very Intensive IFR
Visi :
Ceiling :
>= 8 km
>= 3000ft
5 to 8 km
1000 to 3000 ft
1500m to 5 km
500 to 1000 ft
800 to 1500m
200 to 500 ft
< 800m
< 200 ft
Symbols :   Thunderstorms  Fog  Heavy snow  Heavy precipitations  Wind > 20 kt
SIGMETs :     Misc.  Thunderstorms  Icing  Turbulence  Mountain Waves  Volcanic Ashes






- Airport Elevation : 1058 ft
- IATA code : SCN


EDDR - Saarbrücken

CURRENT METAR :
  • 061520Z 22013KT 9999 BKN010 03/02 Q1015 TEMPO 4500 -RA BKN008

EXPIRED METARs :
  • 061450Z 22013KT 9999 BKN009 BKN015 03/02 Q1015 TEMPO 4500 -RA
  • 061420Z 21012KT 9999 BKN008 03/02 Q1015 NOSIG
  • 061350Z 21011KT 9999 BKN007 03/02 Q1015 NOSIG
  • 061320Z 22009KT 8000 BKN005 02/02 Q1016 NOSIG
  • 061250Z 22010KT 5000 BR BKN004 02/01 Q1016 BECMG BKN005

TAF AMD TAF EDDR
Valid from the 06 at 14:00 until the 07 at 12:00 UTC


061426Z 0614/0712 20008KT 9999 BKN008
PROB30
TEMPO 0614/0616 BKN010
TEMPO 0619/0702 22015G25KT 3000 RA BR
PROB30
TEMPO 0622/0702 1200 RA BKN003
TEMPO 0702/0708 22015G25KT 1200 BR BKN002
TEMPO 0710/0712 SCT008



MET'MAP, your aeronautical weather chart ! - Copyright ORBIFLY December 2007 - Disclaimer

ORBIFLY MET'MAP TEAM :

Programming & Development : Alexandra Zaïnal
Concept & original design : Baudouin d'Aumeries
Assistance for programming : Marc-Olivier Méhu
Technical & hardware support : Manuel Goepfert

Contact : metmap@orbifly.com




SOURCES & CREDITS :

   NOAA